createdAt,value
2019-03-16T00:02:31.540Z,2.85
2019-03-16T00:07:40.412Z,2.88
2019-03-16T00:12:49.382Z,3.30
2019-03-16T00:17:58.291Z,2.78
2019-03-16T00:23:07.173Z,3.18
2019-03-16T00:28:16.076Z,2.92
2019-03-16T00:33:25.011Z,2.86
2019-03-16T00:38:33.882Z,2.92
2019-03-16T00:43:42.841Z,2.79
2019-03-16T00:48:51.705Z,2.56
2019-03-16T00:54:00.628Z,2.99
2019-03-16T00:59:09.524Z,2.68
2019-03-16T01:04:18.461Z,2.90
2019-03-16T01:09:27.327Z,2.78
2019-03-16T01:14:36.289Z,2.62
2019-03-16T01:19:45.196Z,2.88
2019-03-16T01:24:54.103Z,3.13
2019-03-16T01:30:03.031Z,2.68
2019-03-16T01:35:11.896Z,2.83
2019-03-16T01:40:20.890Z,3.53
2019-03-16T01:45:29.806Z,3.14
2019-03-16T01:50:38.752Z,2.69
2019-03-16T01:55:47.659Z,2.71
2019-03-16T02:00:56.607Z,2.63
2019-03-16T02:06:05.512Z,2.67
2019-03-16T02:11:14.493Z,2.42
2019-03-16T02:16:23.395Z,2.56
2019-03-16T02:21:32.419Z,2.65
2019-03-16T02:26:41.294Z,2.65
2019-03-16T02:31:50.261Z,3.74
2019-03-16T02:36:59.122Z,2.83
2019-03-16T02:42:08.059Z,2.62
2019-03-16T02:47:16.954Z,2.61
2019-03-16T02:52:25.995Z,2.77
2019-03-16T02:57:34.899Z,2.43
2019-03-16T03:02:43.896Z,2.93
2019-03-16T03:07:52.788Z,2.95
2019-03-16T03:13:01.686Z,2.91
2019-03-16T03:18:10.544Z,2.70
2019-03-16T03:23:19.465Z,3.12
2019-03-16T03:28:28.347Z,3.51
2019-03-16T03:33:57.844Z,3.24
2019-03-16T03:38:45.721Z,3.01
2019-03-16T03:43:54.629Z,2.80
2019-03-16T03:49:03.525Z,3.31
2019-03-16T03:54:12.425Z,3.09
2019-03-16T03:59:21.380Z,3.02
2019-03-16T04:04:30.280Z,3.12
2019-03-16T04:09:39.237Z,3.09
2019-03-16T04:14:48.138Z,2.85
2019-03-16T04:19:57.023Z,3.16
2019-03-16T04:25:05.927Z,2.73
2019-03-16T04:30:14.981Z,2.91
2019-03-16T04:35:23.856Z,2.76
2019-03-16T04:40:32.817Z,2.70
2019-03-16T04:45:41.760Z,2.61
2019-03-16T04:50:50.683Z,2.69
2019-03-16T04:55:59.589Z,2.82
2019-03-16T05:01:08.461Z,2.87
2019-03-16T05:06:17.309Z,2.67
2019-03-16T05:11:26.235Z,2.94
2019-03-16T05:16:35.111Z,2.72
2019-03-16T05:21:44.079Z,3.20
2019-03-16T05:26:52.993Z,3.09
2019-03-16T05:32:01.906Z,3.37
2019-03-16T05:37:10.797Z,2.98
2019-03-16T05:42:19.717Z,3.85
2019-03-16T05:47:28.621Z,4.14
2019-03-16T05:52:37.509Z,5.51
2019-03-16T05:57:46.383Z,4.11
2019-03-16T06:02:55.304Z,5.13
2019-03-16T06:08:04.243Z,6.21
2019-03-16T06:13:13.088Z,4.41
2019-03-16T06:18:22.011Z,3.88
2019-03-16T06:23:30.875Z,3.48
2019-03-16T06:28:39.768Z,3.36
2019-03-16T06:33:48.612Z,2.67
2019-03-16T06:38:57.548Z,2.53
2019-03-16T06:44:06.390Z,2.62
2019-03-16T06:49:15.325Z,2.55
2019-03-16T06:54:24.214Z,2.27
2019-03-16T06:59:33.156Z,3.00
2019-03-16T07:04:42.090Z,2.55
2019-03-16T07:09:51.016Z,4.23
2019-03-16T07:14:59.877Z,3.36
2019-03-16T07:20:08.828Z,2.95
2019-03-16T07:25:17.716Z,2.76
2019-03-16T07:30:26.664Z,2.68
2019-03-16T07:35:35.517Z,2.87
2019-03-16T07:40:44.464Z,2.63
2019-03-16T07:45:53.324Z,2.86
2019-03-16T07:51:02.199Z,2.84
2019-03-16T07:56:11.095Z,3.09
2019-03-16T08:01:19.995Z,3.57
2019-03-16T08:06:28.900Z,3.62
2019-03-16T08:11:37.776Z,3.36
2019-03-16T08:16:46.684Z,3.64
2019-03-16T08:21:55.592Z,3.69
2019-03-16T08:27:07.382Z,3.40
2019-03-16T08:32:12.837Z,3.65
2019-03-16T08:37:21.795Z,4.16
2019-03-16T08:42:30.688Z,4.87
2019-03-16T08:47:39.600Z,5.15
2019-03-16T08:52:48.523Z,5.58
2019-03-16T08:58:06.034Z,4.77
2019-03-16T09:03:05.881Z,4.47
2019-03-16T09:08:14.772Z,4.43
2019-03-16T09:13:23.656Z,4.31
2019-03-16T09:18:32.530Z,4.10
2019-03-16T09:23:41.388Z,4.24
2019-03-16T09:28:59.583Z,4.18
2019-03-16T09:33:58.709Z,4.30
2019-03-16T09:39:07.608Z,4.32
2019-03-16T09:44:16.456Z,5.25
2019-03-16T09:49:25.328Z,5.18
2019-03-16T09:54:34.194Z,5.14
2019-03-16T09:59:43.104Z,5.51
2019-03-16T10:04:52.023Z,5.54
2019-03-16T10:10:00.945Z,5.96
2019-03-16T10:15:09.826Z,6.02
2019-03-16T10:20:18.713Z,5.70
2019-03-16T10:25:27.653Z,5.71
2019-03-16T10:30:36.529Z,5.53
2019-03-16T10:35:45.445Z,5.92
2019-03-16T10:40:54.316Z,5.34
2019-03-16T10:46:03.222Z,5.33
2019-03-16T10:51:12.103Z,4.62
2019-03-16T10:56:21.025Z,4.58
2019-03-16T11:01:29.906Z,4.32
2019-03-16T11:06:39.295Z,4.02
2019-03-16T11:11:48.165Z,4.86
2019-03-16T11:16:57.084Z,4.39
2019-03-16T11:22:05.971Z,4.39
2019-03-16T11:27:17.189Z,4.63
2019-03-16T11:32:23.307Z,4.54
2019-03-16T11:37:36.219Z,4.47
2019-03-16T11:42:35.079Z,4.22
2019-03-16T11:47:44.007Z,4.23
2019-03-16T11:52:52.901Z,4.58
2019-03-16T11:58:01.763Z,4.62
2019-03-16T12:03:10.645Z,5.06
2019-03-16T12:08:19.551Z,4.41
2019-03-16T12:13:28.443Z,4.37
2019-03-16T12:18:37.285Z,4.43
2019-03-16T12:23:46.183Z,4.13
2019-03-16T12:28:55.079Z,3.88
2019-03-16T12:34:03.992Z,4.55
2019-03-16T12:39:12.888Z,4.11
2019-03-16T12:44:21.825Z,4.40
2019-03-16T12:49:30.723Z,4.27
2019-03-16T12:54:39.596Z,4.31
2019-03-16T12:59:48.495Z,4.31
2019-03-16T13:04:57.443Z,4.34
2019-03-16T13:10:06.302Z,3.89
2019-03-16T13:15:15.232Z,3.80
2019-03-16T13:20:24.088Z,4.42
2019-03-16T13:25:32.965Z,3.68
2019-03-16T13:30:41.860Z,3.59
2019-03-16T13:35:50.826Z,3.60
2019-03-16T13:40:59.643Z,3.22
2019-03-16T13:46:08.539Z,3.45
2019-03-16T13:51:17.443Z,2.85
2019-03-16T13:56:26.312Z,3.33
2019-03-16T14:01:35.184Z,3.14
2019-03-16T14:06:44.045Z,2.91
2019-03-16T14:11:52.952Z,2.65
2019-03-16T14:17:01.836Z,3.51
2019-03-16T14:22:10.749Z,3.41
2019-03-16T14:27:19.629Z,3.07
2019-03-16T14:32:28.531Z,2.82
2019-03-16T14:37:37.396Z,2.85
2019-03-16T14:42:46.274Z,2.89
2019-03-16T14:47:55.204Z,2.76
2019-03-16T14:53:04.086Z,3.03
2019-03-16T14:58:12.950Z,3.10
2019-03-16T15:03:21.827Z,3.23
2019-03-16T15:08:30.720Z,2.74
2019-03-16T15:13:39.562Z,2.69
2019-03-16T15:18:48.443Z,2.33
2019-03-16T15:23:57.293Z,2.75
2019-03-16T15:29:06.202Z,2.58
2019-03-16T15:34:15.084Z,2.78
2019-03-16T15:39:23.993Z,2.94
2019-03-16T15:44:32.879Z,2.70
2019-03-16T15:49:41.753Z,2.97
2019-03-16T15:54:50.644Z,2.58
2019-03-16T15:59:59.567Z,2.71
2019-03-16T16:05:08.489Z,3.12
2019-03-16T16:10:17.389Z,2.97
2019-03-16T16:15:26.271Z,2.98
2019-03-16T16:20:35.183Z,2.73
2019-03-16T16:25:44.087Z,2.46
2019-03-16T16:30:52.949Z,2.63
2019-03-16T16:36:02.002Z,2.89
2019-03-16T16:41:10.885Z,2.73
2019-03-16T16:46:19.934Z,2.73
2019-03-16T16:51:28.844Z,3.03
2019-03-16T16:56:37.787Z,2.92
2019-03-16T17:01:46.687Z,2.89
2019-03-16T17:06:55.569Z,2.97
2019-03-16T17:12:04.439Z,2.88
2019-03-16T17:17:13.331Z,3.00
2019-03-16T17:22:22.223Z,2.94
2019-03-16T17:27:31.167Z,3.38
2019-03-16T17:32:40.055Z,2.96
2019-03-16T17:37:48.944Z,2.84
2019-03-16T17:42:57.863Z,2.75
2019-03-16T17:48:06.776Z,3.24
2019-03-16T17:53:15.659Z,2.93
2019-03-16T17:58:24.551Z,3.38
2019-03-16T18:03:33.408Z,2.94
2019-03-16T18:08:42.291Z,3.26
2019-03-16T18:13:51.170Z,3.18
2019-03-16T18:19:00.247Z,3.16
2019-03-16T18:24:09.163Z,3.37
2019-03-16T18:29:18.079Z,3.50
2019-03-16T18:34:26.941Z,3.16
2019-03-16T18:39:35.871Z,3.72
2019-03-16T18:44:44.760Z,3.51
2019-03-16T18:49:53.696Z,3.45
2019-03-16T18:55:02.603Z,3.16
2019-03-16T19:00:11.488Z,3.41
2019-03-16T19:05:20.400Z,2.82
2019-03-16T19:10:29.283Z,3.31
2019-03-16T19:15:38.223Z,3.28
2019-03-16T19:20:47.099Z,3.35
2019-03-16T19:25:55.981Z,3.15
2019-03-16T19:31:04.884Z,3.74
2019-03-16T19:36:13.789Z,4.00
2019-03-16T19:41:22.676Z,3.81
2019-03-16T19:46:31.572Z,4.21
2019-03-16T19:51:40.479Z,3.94
2019-03-16T19:56:49.400Z,3.99
2019-03-16T20:01:58.283Z,4.17
2019-03-16T20:07:18.764Z,4.49
2019-03-16T20:12:15.769Z,3.64
2019-03-16T20:17:24.643Z,4.58
2019-03-16T20:22:33.523Z,3.92
2019-03-16T20:27:42.395Z,3.64
2019-03-16T20:33:03.010Z,3.96
2019-03-16T20:37:59.689Z,3.74
2019-03-16T20:43:12.391Z,3.52
2019-03-16T20:48:11.053Z,4.04
2019-03-16T20:53:20.036Z,3.38
2019-03-16T20:58:28.861Z,3.77
2019-03-16T21:03:37.864Z,3.34
2019-03-16T21:08:47.129Z,3.55
2019-03-16T21:13:55.831Z,3.48
2019-03-16T21:19:04.745Z,3.68
2019-03-16T21:24:14.396Z,3.84
2019-03-16T21:29:26.230Z,3.42
2019-03-16T21:34:33.379Z,3.40
2019-03-16T21:39:40.196Z,3.91
2019-03-16T21:44:49.288Z,3.59
2019-03-16T21:49:58.194Z,3.41
2019-03-16T21:55:07.060Z,3.17
2019-03-16T22:00:15.962Z,3.78
2019-03-16T22:05:24.851Z,4.33
2019-03-16T22:10:33.715Z,3.60
2019-03-16T22:15:42.685Z,3.81
2019-03-16T22:20:51.626Z,4.80
2019-03-16T22:26:00.577Z,5.05
2019-03-16T22:31:09.451Z,4.19
2019-03-16T22:36:18.324Z,4.22
2019-03-16T22:41:27.235Z,3.73
2019-03-16T22:46:36.108Z,3.53
2019-03-16T22:51:45.040Z,3.48
2019-03-16T22:56:53.947Z,3.05
2019-03-16T23:02:02.878Z,3.21
2019-03-16T23:07:11.762Z,2.99
2019-03-16T23:12:20.689Z,3.42
2019-03-16T23:17:29.568Z,3.01
2019-03-16T23:22:38.485Z,3.18
2019-03-16T23:27:47.376Z,3.59
2019-03-16T23:32:56.327Z,3.18
2019-03-16T23:38:05.237Z,3.33
2019-03-16T23:43:14.123Z,2.90
2019-03-16T23:48:23.003Z,2.87
2019-03-16T23:53:31.916Z,2.94
2019-03-16T23:58:40.876Z,2.86
